Terminal Aerodrome Forecast
Issued by NWS

Current Version | Previous Version | Text Only | Print | Product List | Glossary On
Versions: 1 2 3 4 5 6 7 8 9 10 11 12 13 14
000
FTUS45 KVEF 021700
TAFVGT
TAF
KVGT 021724Z 0218/0318 13008KT P6SM SKC
     FM022300 18012G20KT P6SM SKC
     FM030300 19008KT P6SM SKC
     FM030900 VRB05KT P6SM SKC=

USA.gov is the U.S. government's official web portal to all federal, state and local government web resources and services.